CheckWX is a tool to help pilots better visualize weather data.  It is not intended as a substitute for an official pre-flight weather briefing.

17:57:26 UTC

KCLE METAR
Cleveland-Hopkins International Airport
Cleveland, Ohio, USA
Current

1 hour ago

KCLE 171651Z 06009KT 10SM OVC070 M01/M08 A2993 RMK AO2 SLP146 T10111083
Observed
Feb-17 @ 16:51 UTC
Wind
  • 060° at 9 KTS
Visibility
10 SM
Flight Rules
VFR
Cloud Levels
  • Overcast at 7,000' AGL
Temperature
-1°C / 30°F
Dewpoint
-8°C / 18°F
Humidity
59%
Altimeter
29.93" Hg
Pressure
1014.6 hPa
Previous

2 hours ago

KCLE 171551Z 08009KT 10SM SCT070 OVC090 M02/M08 A2996 RMK AO2 SLP155 T10171083
Observed
Feb-17 @ 15:51 UTC
Wind
  • 080° at 9 KTS
Visibility
10 SM
Flight Rules
VFR
Cloud Levels
  • Scattered at 7,000' AGL
  • Overcast at 9,000' AGL
Temperature
-2°C / 28°F
Dewpoint
-8°C / 18°F
Humidity
64%
Altimeter
29.96" Hg
Pressure
1015.5 hPa
Previous

3 hours ago

KCLE 171451Z 07009KT 10SM BKN080 M02/M08 A2998 RMK AO2 SLP162 T10221083 58010
Observed
Feb-17 @ 14:51 UTC
Wind
  • 070° at 9 KTS
Visibility
10 SM
Flight Rules
VFR
Cloud Levels
  • Broken at 8,000' AGL
Temperature
-2°C / 28°F
Dewpoint
-8°C / 18°F
Humidity
64%
Altimeter
29.98" Hg
Pressure
1016.2 hPa